createdAt,value
2022-12-29T00:00:17.625Z,9.49
2022-12-29T00:02:44.266Z,9.78
2022-12-29T00:05:11.003Z,9.73
2022-12-29T00:07:38.006Z,9.78
2022-12-29T00:10:05.146Z,9.85
2022-12-29T00:12:51.636Z,9.84
2022-12-29T00:15:36.664Z,9.87
2022-12-29T00:18:03.356Z,9.87
2022-12-29T00:20:48.334Z,9.89
2022-12-29T00:23:33.766Z,9.93
2022-12-29T00:26:23.219Z,10.02
2022-12-29T00:29:09.753Z,9.97
2022-12-29T00:31:54.841Z,9.96
2022-12-29T00:34:39.882Z,9.92
2022-12-29T00:37:06.493Z,9.91
2022-12-29T00:39:52.340Z,9.85
2022-12-29T00:42:41.376Z,9.73
2022-12-29T00:45:08.197Z,9.72
2022-12-29T00:47:34.758Z,9.82
2022-12-29T00:50:01.309Z,9.72
2022-12-29T00:52:27.942Z,9.70
2022-12-29T00:54:54.535Z,9.68
2022-12-29T00:57:21.125Z,9.55
2022-12-29T00:59:47.701Z,9.53
2022-12-29T01:02:14.369Z,9.53
2022-12-29T01:04:41.056Z,9.49
2022-12-29T01:07:07.711Z,9.42
2022-12-29T01:09:52.827Z,9.45
2022-12-29T01:12:39.539Z,9.42
2022-12-29T01:15:07.484Z,9.31
2022-12-29T01:17:34.097Z,9.39
2022-12-29T01:20:01.235Z,9.26
2022-12-29T01:22:28.136Z,9.21
2022-12-29T01:24:54.637Z,9.14
2022-12-29T01:27:21.175Z,9.18
2022-12-29T01:29:47.712Z,9.13
2022-12-29T01:32:14.341Z,9.13
2022-12-29T01:34:40.893Z,9.24
2022-12-29T01:37:07.514Z,9.28
2022-12-29T01:39:34.042Z,9.49
2022-12-29T01:42:01.121Z,9.55
2022-12-29T01:45:04.340Z,9.59
2022-12-29T01:47:38.431Z,9.63
2022-12-29T01:50:13.410Z,9.64
2022-12-29T01:52:45.972Z,9.64
2022-12-29T01:55:13.577Z,9.61
2022-12-29T01:57:47.318Z,9.65
2022-12-29T02:00:15.295Z,9.56
2022-12-29T02:02:46.419Z,9.59
2022-12-29T02:05:22.352Z,9.69
2022-12-29T02:07:50.869Z,9.82
2022-12-29T02:10:18.852Z,9.84
2022-12-29T02:12:46.527Z,9.78
2022-12-29T02:15:13.289Z,9.93
2022-12-29T02:18:06.505Z,9.98
2022-12-29T02:20:42.151Z,10.03
2022-12-29T02:23:26.679Z,10.07
2022-12-29T02:25:58.927Z,10.08
2022-12-29T02:28:49.465Z,10.07
2022-12-29T02:31:26.762Z,10.06
2022-12-29T02:34:08.560Z,10.11
2022-12-29T02:36:55.768Z,10.16
2022-12-29T02:39:51.316Z,10.05
2022-12-29T02:42:47.885Z,10.15
2022-12-29T02:45:27.498Z,10.33
2022-12-29T02:47:57.817Z,10.38
2022-12-29T02:50:24.284Z,10.39
2022-12-29T02:52:58.047Z,10.39
2022-12-29T02:55:24.830Z,10.41
2022-12-29T02:58:09.881Z,10.43
2022-12-29T03:00:49.459Z,10.47
2022-12-29T03:03:21.113Z,10.55
2022-12-29T03:05:50.849Z,10.48
2022-12-29T03:08:54.718Z,10.47
2022-12-29T03:11:45.956Z,10.52
2022-12-29T03:14:49.364Z,10.57
2022-12-29T03:17:30.793Z,10.57
2022-12-29T03:20:07.532Z,10.60
2022-12-29T03:22:40.886Z,10.59
2022-12-29T03:25:17.037Z,10.62
2022-12-29T03:27:48.012Z,10.62
2022-12-29T03:30:15.277Z,10.63
2022-12-29T03:32:47.457Z,10.66
2022-12-29T03:35:18.280Z,10.63
2022-12-29T03:37:53.799Z,10.76
2022-12-29T03:40:22.299Z,10.88
2022-12-29T03:42:49.303Z,10.85
2022-12-29T03:45:15.866Z,10.91
2022-12-29T03:47:42.489Z,10.99
2022-12-29T03:50:09.643Z,11.01
2022-12-29T03:52:36.219Z,11.09
2022-12-29T03:55:02.801Z,11.07
2022-12-29T03:57:29.335Z,11.11
2022-12-29T03:59:55.903Z,11.10
2022-12-29T04:02:22.608Z,11.08
2022-12-29T04:04:49.240Z,11.08
2022-12-29T04:07:16.057Z,11.18
2022-12-29T04:09:42.604Z,11.16
2022-12-29T04:12:09.173Z,11.14
2022-12-29T04:14:35.818Z,11.14
2022-12-29T04:17:02.404Z,11.10
2022-12-29T04:19:29.017Z,11.07
2022-12-29T04:21:55.542Z,11.08
2022-12-29T04:24:22.144Z,11.10
2022-12-29T04:26:48.858Z,11.06
2022-12-29T04:29:15.350Z,11.05
2022-12-29T04:31:41.991Z,11.05
2022-12-29T04:34:08.984Z,11.09
2022-12-29T04:36:35.569Z,11.09
2022-12-29T04:39:02.128Z,11.13
2022-12-29T04:41:28.764Z,11.03
2022-12-29T04:43:55.319Z,11.05
2022-12-29T04:46:21.925Z,11.07
2022-12-29T04:48:48.540Z,11.07
2022-12-29T04:51:15.508Z,11.05
2022-12-29T04:53:42.194Z,11.01
2022-12-29T04:56:10.146Z,11.07
2022-12-29T04:58:37.602Z,11.03
2022-12-29T05:01:04.188Z,11.00
2022-12-29T05:03:30.813Z,10.97
2022-12-29T05:05:58.334Z,10.96
2022-12-29T05:08:28.296Z,10.98
2022-12-29T05:10:55.512Z,10.89
2022-12-29T05:13:22.114Z,10.80
2022-12-29T05:15:53.648Z,10.71
2022-12-29T05:18:20.662Z,10.77
2022-12-29T05:20:48.368Z,10.83
2022-12-29T05:23:16.974Z,10.71
2022-12-29T05:25:46.643Z,10.71
2022-12-29T05:28:13.743Z,10.78
2022-12-29T05:30:41.197Z,10.71
2022-12-29T05:33:07.775Z,10.71
2022-12-29T05:35:34.419Z,10.76
2022-12-29T05:38:01.008Z,10.84
2022-12-29T05:40:27.526Z,10.87
2022-12-29T05:42:54.057Z,10.88
2022-12-29T05:45:20.576Z,10.87
2022-12-29T05:47:47.100Z,10.96
2022-12-29T05:50:13.678Z,10.99
2022-12-29T05:52:40.619Z,11.01
2022-12-29T05:55:07.794Z,11.03
2022-12-29T05:57:34.363Z,11.09
2022-12-29T06:00:00.908Z,11.08
2022-12-29T06:02:27.597Z,11.08
2022-12-29T06:04:54.281Z,11.08
2022-12-29T06:07:21.987Z,11.07
2022-12-29T06:09:48.591Z,11.06
2022-12-29T06:12:15.158Z,11.07
2022-12-29T06:14:41.670Z,11.07
2022-12-29T06:17:08.212Z,11.00
2022-12-29T06:19:34.800Z,11.03
2022-12-29T06:22:03.952Z,11.05
2022-12-29T06:24:30.766Z,11.07
2022-12-29T06:26:57.311Z,11.09
2022-12-29T06:29:23.869Z,11.04
2022-12-29T06:31:52.087Z,10.96
2022-12-29T06:34:18.852Z,10.91
2022-12-29T06:36:45.388Z,10.86
2022-12-29T06:39:11.929Z,10.75
2022-12-29T06:41:38.925Z,10.81
2022-12-29T06:44:05.720Z,10.75
2022-12-29T06:46:32.372Z,10.72
2022-12-29T06:48:58.968Z,10.73
2022-12-29T06:51:25.590Z,10.62
2022-12-29T06:53:52.123Z,10.53
2022-12-29T06:56:18.690Z,10.56
2022-12-29T06:58:45.223Z,10.57
2022-12-29T07:01:11.882Z,10.60
2022-12-29T07:03:38.597Z,10.35
2022-12-29T07:06:05.553Z,10.40
2022-12-29T07:08:32.104Z,10.24
2022-12-29T07:10:58.658Z,10.17
2022-12-29T07:13:25.212Z,10.09
2022-12-29T07:15:51.795Z,10.14
2022-12-29T07:18:18.489Z,10.01
2022-12-29T07:20:45.192Z,10.11
2022-12-29T07:23:11.727Z,10.29
2022-12-29T07:25:38.437Z,10.45
2022-12-29T07:28:05.159Z,10.47
2022-12-29T07:30:31.746Z,10.48
2022-12-29T07:32:58.459Z,10.70
2022-12-29T07:35:25.080Z,10.79
2022-12-29T07:37:51.648Z,10.90
2022-12-29T07:40:18.277Z,10.85
2022-12-29T07:42:44.828Z,10.86
2022-12-29T07:45:11.471Z,10.65
2022-12-29T07:47:38.017Z,10.79
2022-12-29T07:50:05.820Z,10.62
2022-12-29T07:52:32.365Z,10.64
2022-12-29T07:54:58.886Z,10.66
2022-12-29T07:57:31.540Z,10.79
2022-12-29T07:59:58.543Z,10.73
2022-12-29T08:02:27.276Z,10.69
2022-12-29T08:04:54.019Z,10.78
2022-12-29T08:07:20.560Z,10.73
2022-12-29T08:09:47.053Z,10.72
2022-12-29T08:12:13.683Z,10.81
2022-12-29T08:14:40.169Z,10.71
2022-12-29T08:17:06.655Z,10.67
2022-12-29T08:19:33.181Z,10.89
2022-12-29T08:21:59.745Z,11.04
2022-12-29T08:24:26.265Z,11.08
2022-12-29T08:26:53.165Z,11.06
2022-12-29T08:29:20.544Z,11.24
2022-12-29T08:31:47.281Z,11.23
2022-12-29T08:34:14.467Z,11.23
2022-12-29T08:36:41.157Z,11.19
2022-12-29T08:39:07.708Z,11.18
2022-12-29T08:41:34.235Z,11.08
2022-12-29T08:44:01.116Z,11.07
2022-12-29T08:46:27.818Z,11.05
2022-12-29T08:48:54.955Z,11.04
2022-12-29T08:51:24.728Z,11.03
2022-12-29T08:53:51.757Z,11.00
2022-12-29T08:56:18.373Z,11.01
2022-12-29T08:58:44.937Z,10.98
2022-12-29T09:01:11.902Z,11.07
2022-12-29T09:04:12.647Z,11.16
2022-12-29T09:06:25.263Z,11.19
2022-12-29T09:08:51.826Z,11.20
2022-12-29T09:11:22.180Z,11.25
2022-12-29T09:13:49.074Z,11.29
2022-12-29T09:16:16.670Z,11.28
2022-12-29T09:18:43.333Z,11.27
2022-12-29T09:21:11.341Z,11.29
2022-12-29T09:23:38.354Z,11.34
2022-12-29T09:26:05.023Z,11.34
2022-12-29T09:28:31.904Z,11.32
2022-12-29T09:30:59.745Z,11.24
2022-12-29T09:33:27.002Z,11.26
2022-12-29T09:35:56.131Z,11.31
2022-12-29T09:38:23.969Z,11.35
2022-12-29T09:40:56.937Z,11.33
2022-12-29T09:44:01.847Z,11.44
2022-12-29T09:46:33.156Z,11.47
2022-12-29T09:49:35.749Z,11.39
2022-12-29T09:52:14.389Z,11.49
2022-12-29T09:54:53.827Z,11.55
2022-12-29T09:57:46.559Z,11.59
2022-12-29T10:00:24.155Z,11.62
2022-12-29T10:02:57.637Z,11.65
2022-12-29T10:05:48.941Z,11.64
2022-12-29T10:08:43.091Z,11.71
2022-12-29T10:11:51.566Z,11.75
2022-12-29T10:14:40.121Z,11.79
2022-12-29T10:17:12.491Z,11.78
2022-12-29T10:19:54.839Z,11.88
2022-12-29T10:22:35.226Z,11.91
2022-12-29T10:25:25.106Z,11.97
2022-12-29T10:27:59.005Z,12.01
2022-12-29T10:30:25.931Z,12.05
2022-12-29T10:33:02.287Z,12.07
2022-12-29T10:35:48.659Z,12.15
2022-12-29T10:38:27.994Z,12.26
2022-12-29T10:41:03.197Z,12.37
2022-12-29T10:43:51.918Z,12.52
2022-12-29T10:46:30.386Z,12.56
2022-12-29T10:48:57.320Z,12.67
2022-12-29T10:51:31.440Z,12.73
2022-12-29T10:54:10.647Z,12.74
2022-12-29T10:57:03.299Z,12.79
2022-12-29T10:59:36.682Z,12.70
2022-12-29T11:02:21.512Z,12.68
2022-12-29T11:05:35.694Z,12.83
2022-12-29T11:08:13.859Z,12.92
2022-12-29T11:10:43.741Z,12.99
2022-12-29T11:13:25.366Z,13.04
2022-12-29T11:15:55.293Z,13.04
2022-12-29T11:18:28.091Z,13.12
2022-12-29T11:21:06.739Z,13.07
2022-12-29T11:23:38.458Z,13.12
2022-12-29T11:26:20.469Z,13.13
2022-12-29T11:29:05.055Z,13.13
2022-12-29T11:31:32.215Z,13.06
2022-12-29T11:34:00.315Z,13.13
2022-12-29T11:36:27.174Z,13.33
2022-12-29T11:38:55.837Z,13.38
2022-12-29T11:41:35.655Z,13.58
2022-12-29T11:44:06.810Z,13.58
2022-12-29T11:46:42.911Z,13.52
2022-12-29T11:49:21.173Z,13.58
2022-12-29T11:51:51.467Z,13.68
2022-12-29T11:54:31.407Z,13.80
2022-12-29T11:57:00.102Z,13.74
2022-12-29T11:59:32.844Z,13.84
2022-12-29T12:02:13.483Z,13.46
2022-12-29T12:04:43.676Z,13.44
2022-12-29T12:07:25.944Z,13.32
2022-12-29T12:10:06.916Z,13.26
2022-12-29T12:12:41.543Z,13.25
2022-12-29T12:15:17.526Z,13.17
2022-12-29T12:18:01.335Z,13.16
2022-12-29T12:20:49.789Z,13.11
2022-12-29T12:23:35.027Z,13.23
2022-12-29T12:26:26.471Z,13.30
2022-12-29T12:29:19.447Z,13.43
2022-12-29T12:32:21.222Z,13.38
2022-12-29T12:34:50.172Z,13.33
2022-12-29T12:37:27.487Z,13.38
2022-12-29T12:40:36.667Z,13.42
2022-12-29T12:43:17.292Z,13.32
2022-12-29T12:46:05.779Z,13.18
2022-12-29T12:49:00.856Z,13.29
2022-12-29T12:51:45.614Z,13.24
2022-12-29T12:54:36.677Z,13.28
2022-12-29T12:57:40.508Z,13.35
2022-12-29T13:00:14.031Z,13.51
2022-12-29T13:02:56.305Z,13.53
2022-12-29T13:05:57.598Z,13.54
2022-12-29T13:08:26.869Z,13.43
2022-12-29T13:11:21.134Z,13.57
2022-12-29T13:14:05.957Z,13.60
2022-12-29T13:16:32.649Z,13.66
2022-12-29T13:19:30.338Z,13.69
2022-12-29T13:22:10.946Z,13.68
2022-12-29T13:24:46.964Z,13.67
2022-12-29T13:27:19.935Z,13.68
2022-12-29T13:29:55.375Z,13.56
2022-12-29T13:32:38.924Z,13.48
2022-12-29T13:35:15.808Z,13.50
2022-12-29T13:37:54.982Z,13.41
2022-12-29T13:40:25.926Z,13.37
2022-12-29T13:42:54.273Z,13.36
2022-12-29T13:45:25.266Z,13.35
2022-12-29T13:48:29.689Z,13.30
2022-12-29T13:51:00.371Z,13.27
2022-12-29T13:54:01.527Z,13.25
2022-12-29T13:56:46.852Z,13.24
2022-12-29T13:59:22.600Z,13.25
2022-12-29T14:02:00.881Z,13.20
2022-12-29T14:04:30.892Z,13.23
2022-12-29T14:07:00.438Z,13.27
2022-12-29T14:09:44.155Z,13.27
2022-12-29T14:12:20.847Z,13.23
2022-12-29T14:14:48.456Z,13.22
2022-12-29T14:17:21.570Z,13.08
2022-12-29T14:19:53.636Z,13.10
2022-12-29T14:22:33.058Z,13.14
2022-12-29T14:25:01.123Z,13.07
2022-12-29T14:27:30.894Z,13.06
2022-12-29T14:29:57.718Z,13.06
2022-12-29T14:32:27.622Z,13.10
2022-12-29T14:34:56.665Z,13.07
2022-12-29T14:37:33.436Z,12.89
2022-12-29T14:40:25.908Z,12.86
2022-12-29T14:42:55.817Z,12.80
2022-12-29T14:45:27.726Z,12.86
2022-12-29T14:47:55.072Z,12.89
2022-12-29T14:50:43.163Z,12.83
2022-12-29T14:53:49.578Z,12.78
2022-12-29T14:56:19.017Z,12.76
2022-12-29T14:58:58.653Z,12.64
2022-12-29T15:01:34.583Z,12.63
2022-12-29T15:04:20.626Z,12.54
2022-12-29T15:06:48.882Z,12.41
2022-12-29T15:09:37.240Z,12.34
2022-12-29T15:12:34.332Z,12.53
2022-12-29T15:15:02.489Z,12.47
2022-12-29T15:17:36.439Z,12.51
2022-12-29T15:20:28.728Z,12.56
2022-12-29T15:23:01.785Z,12.53
2022-12-29T15:25:28.800Z,12.52
2022-12-29T15:28:02.484Z,12.41
2022-12-29T15:30:29.508Z,12.38
2022-12-29T15:32:57.046Z,12.31
2022-12-29T15:35:25.729Z,12.22
2022-12-29T15:37:52.585Z,12.31
2022-12-29T15:40:33.169Z,12.31
2022-12-29T15:43:21.371Z,12.25
2022-12-29T15:45:48.369Z,12.10
2022-12-29T15:48:23.788Z,12.17
2022-12-29T15:50:51.647Z,12.12
2022-12-29T15:53:29.695Z,12.25
2022-12-29T15:56:13.152Z,12.25
2022-12-29T15:58:49.574Z,12.19
2022-12-29T16:01:37.360Z,12.14
2022-12-29T16:04:07.539Z,12.12
2022-12-29T16:06:45.520Z,12.05
2022-12-29T16:09:37.880Z,11.91
2022-12-29T16:12:09.028Z,11.93
2022-12-29T16:14:44.571Z,11.89
2022-12-29T16:17:29.061Z,11.88
2022-12-29T16:20:25.118Z,11.83
2022-12-29T16:22:58.243Z,11.79
2022-12-29T16:25:29.176Z,11.69
2022-12-29T16:27:56.219Z,11.72
2022-12-29T16:30:33.470Z,11.72
2022-12-29T16:33:06.139Z,11.72
2022-12-29T16:35:45.010Z,11.48
2022-12-29T16:38:19.377Z,11.57
2022-12-29T16:40:53.695Z,11.56
2022-12-29T16:43:26.218Z,11.61
2022-12-29T16:45:52.821Z,11.50
2022-12-29T16:48:44.466Z,11.54
2022-12-29T16:51:22.275Z,11.49
2022-12-29T16:53:54.738Z,11.48
2022-12-29T16:56:28.155Z,11.56
2022-12-29T16:59:03.374Z,11.48
2022-12-29T17:01:30.773Z,11.41
2022-12-29T17:04:06.681Z,11.41
2022-12-29T17:06:33.567Z,11.32
2022-12-29T17:09:03.870Z,11.34
2022-12-29T17:11:59.320Z,11.39
2022-12-29T17:14:36.418Z,11.32
2022-12-29T17:17:17.592Z,11.27
2022-12-29T17:20:10.080Z,11.29
2022-12-29T17:22:37.059Z,11.25
2022-12-29T17:25:04.121Z,11.05
2022-12-29T17:27:52.999Z,11.08
2022-12-29T17:30:29.693Z,11.07
2022-12-29T17:33:02.797Z,11.03
2022-12-29T17:35:29.413Z,11.01
2022-12-29T17:37:56.154Z,10.93
2022-12-29T17:40:29.853Z,10.99
2022-12-29T17:42:58.521Z,10.73
2022-12-29T17:45:28.398Z,10.58
2022-12-29T17:47:55.838Z,10.69
2022-12-29T17:50:25.098Z,10.92
2022-12-29T17:53:04.641Z,10.92
2022-12-29T17:55:39.914Z,10.92
2022-12-29T17:58:18.891Z,10.83
2022-12-29T18:00:47.469Z,10.69
2022-12-29T18:03:19.814Z,10.81
2022-12-29T18:05:49.936Z,10.66
2022-12-29T18:08:17.115Z,10.66
2022-12-29T18:10:47.497Z,10.60
2022-12-29T18:13:36.063Z,10.66
2022-12-29T18:16:10.843Z,10.66
2022-12-29T18:18:38.397Z,10.57
2022-12-29T18:21:22.304Z,10.64
2022-12-29T18:23:52.389Z,10.53
2022-12-29T18:26:31.354Z,10.42
2022-12-29T18:28:59.013Z,10.29
2022-12-29T18:31:28.915Z,10.24
2022-12-29T18:33:57.640Z,10.08
2022-12-29T18:36:26.109Z,9.78
2022-12-29T18:38:56.903Z,9.75
2022-12-29T18:41:26.293Z,9.64
2022-12-29T18:43:53.125Z,9.69
2022-12-29T18:46:23.257Z,9.60
2022-12-29T18:48:51.403Z,9.72
2022-12-29T18:51:20.691Z,9.69
2022-12-29T18:53:47.740Z,9.89
2022-12-29T18:56:14.839Z,10.03
2022-12-29T18:58:42.169Z,10.00
2022-12-29T19:01:35.434Z,10.02
2022-12-29T19:04:02.221Z,9.96
2022-12-29T19:06:34.568Z,10.02
2022-12-29T19:09:01.334Z,9.93
2022-12-29T19:11:28.035Z,9.86
2022-12-29T19:13:54.775Z,9.86
2022-12-29T19:16:22.792Z,10.18
2022-12-29T19:19:07.815Z,10.40
2022-12-29T19:21:37.738Z,10.41
2022-12-29T19:24:04.864Z,10.27
2022-12-29T19:26:36.102Z,10.27
2022-12-29T19:29:04.303Z,10.17
2022-12-29T19:31:31.301Z,9.99
2022-12-29T19:33:58.098Z,10.18
2022-12-29T19:36:24.798Z,10.25
2022-12-29T19:38:51.444Z,10.15
2022-12-29T19:41:18.106Z,9.88
2022-12-29T19:43:49.334Z,9.82
2022-12-29T19:46:18.495Z,9.88
2022-12-29T19:48:45.368Z,9.98
2022-12-29T19:51:17.233Z,9.89
2022-12-29T19:53:45.409Z,10.01
2022-12-29T19:56:12.797Z,9.98
2022-12-29T19:58:45.195Z,10.11
2022-12-29T20:01:15.488Z,10.30
2022-12-29T20:03:42.433Z,10.52
2022-12-29T20:06:10.799Z,10.60
2022-12-29T20:08:38.346Z,10.57
2022-12-29T20:11:09.897Z,10.60
2022-12-29T20:13:39.409Z,10.45
2022-12-29T20:16:08.531Z,10.21
2022-12-29T20:18:36.023Z,10.25
2022-12-29T20:21:05.531Z,10.26
2022-12-29T20:23:33.722Z,10.29
2022-12-29T20:26:01.564Z,10.13
2022-12-29T20:28:29.732Z,10.08
2022-12-29T20:31:06.792Z,10.01
2022-12-29T20:33:35.057Z,9.83
2022-12-29T20:36:11.322Z,9.92
2022-12-29T20:38:39.487Z,9.96
2022-12-29T20:41:06.400Z,10.03
2022-12-29T20:43:33.708Z,10.03
2022-12-29T20:46:00.474Z,10.01
2022-12-29T20:48:30.506Z,9.89
2022-12-29T20:51:00.676Z,9.89
2022-12-29T20:53:29.244Z,9.93
2022-12-29T20:56:02.724Z,10.02
2022-12-29T20:58:29.969Z,9.99
2022-12-29T21:01:01.697Z,9.92
2022-12-29T21:03:28.652Z,9.87
2022-12-29T21:05:55.863Z,9.90
2022-12-29T21:08:24.182Z,9.86
2022-12-29T21:10:51.044Z,9.75
2022-12-29T21:13:18.084Z,9.69
2022-12-29T21:15:46.072Z,9.62
2022-12-29T21:18:13.971Z,9.60
2022-12-29T21:20:41.365Z,9.59
2022-12-29T21:23:08.151Z,9.62
2022-12-29T21:25:37.572Z,9.55
2022-12-29T21:28:09.628Z,9.36
2022-12-29T21:30:36.773Z,9.52
2022-12-29T21:33:04.103Z,9.57
2022-12-29T21:35:34.725Z,9.58
2022-12-29T21:38:01.448Z,9.56
2022-12-29T21:40:28.091Z,9.61
2022-12-29T21:42:54.858Z,9.47
2022-12-29T21:45:28.669Z,9.56
2022-12-29T21:48:17.845Z,9.47
2022-12-29T21:51:11.909Z,9.46
2022-12-29T21:53:40.175Z,9.39
2022-12-29T21:56:15.012Z,9.34
2022-12-29T21:59:05.835Z,9.29
2022-12-29T22:01:53.478Z,9.20
2022-12-29T22:04:39.718Z,9.15
2022-12-29T22:07:26.685Z,9.32
2022-12-29T22:10:12.140Z,9.30
2022-12-29T22:12:57.436Z,9.19
2022-12-29T22:15:24.316Z,9.21
2022-12-29T22:17:55.285Z,9.09
2022-12-29T22:20:25.064Z,9.19
2022-12-29T22:22:52.539Z,9.01
2022-12-29T22:25:19.454Z,8.94
2022-12-29T22:27:46.352Z,8.95
2022-12-29T22:30:14.220Z,9.02
2022-12-29T22:32:41.359Z,9.06
2022-12-29T22:35:09.753Z,8.97
2022-12-29T22:37:38.213Z,9.00
2022-12-29T22:40:06.352Z,9.05
2022-12-29T22:42:33.341Z,9.00
2022-12-29T22:44:59.923Z,9.01
2022-12-29T22:47:26.627Z,8.98
2022-12-29T22:49:53.457Z,8.84
2022-12-29T22:52:20.283Z,9.01
2022-12-29T22:54:47.168Z,8.81
2022-12-29T22:57:14.048Z,9.05
2022-12-29T22:59:40.651Z,8.99
2022-12-29T23:02:07.423Z,8.98
2022-12-29T23:05:02.304Z,8.94
2022-12-29T23:07:21.333Z,9.08
2022-12-29T23:09:47.924Z,9.11
2022-12-29T23:12:14.589Z,9.16
2022-12-29T23:14:41.149Z,9.18
2022-12-29T23:17:07.765Z,9.23
2022-12-29T23:19:34.390Z,9.07
2022-12-29T23:22:01.292Z,9.17
2022-12-29T23:24:30.899Z,9.20
2022-12-29T23:26:57.483Z,9.17
2022-12-29T23:29:24.306Z,9.12
2022-12-29T23:31:51.130Z,9.12
2022-12-29T23:34:18.239Z,8.91
2022-12-29T23:36:46.892Z,8.95
2022-12-29T23:39:23.400Z,8.88
2022-12-29T23:41:50.821Z,8.98
2022-12-29T23:44:17.571Z,9.07
2022-12-29T23:46:44.517Z,9.07
2022-12-29T23:49:11.404Z,9.08
2022-12-29T23:51:40.883Z,9.11
2022-12-29T23:54:07.705Z,9.10
2022-12-29T23:56:34.462Z,9.12
2022-12-29T23:59:05.196Z,8.99
